Aérodrome :
LOGIN :

S'inscrire | Disclaimer

   EN    FR    IT 

 










Légende :    VFR   VFR Marginal   IFR   IFR Intensif   IFR Très Intensif
Visi : 
Plafond : 
>= 8 km
>= 3000ft
5 à 8 km
1000 à 3000 ft
1500m à 5 km
500 à 1000 ft
800 à 1500m
200 à 500 ft
< 800m
< 200 ft
Symboles :   Orages  Brouillard  Fortes neiges  Fortes précipitations  Vent > 20 kt
SIGMETs :   Divers  Orages  Givrage  Turbulence  Onde Orograph.  Cendres Volcan.






- Altitude de l'aérodrome : 425 ft
- Code IATA : DTM


EDLW - Dortmund

DERNIER METAR :
  • 262220Z AUTO 20008KT 9999 // FEW020/// 02/00 Q1017

METARs EXPIRÉS :
  • 262150Z AUTO 21010KT 9999 // FEW100/// 02/00 Q1017
  • 262120Z AUTO 20011KT 9999 // FEW110/// 02/00 Q1017
  • 262050Z 20009KT CAVOK 02/00 Q1017
  • 262020Z 22010KT 9999 FEW055 02/M00 Q1017
  • 261950Z 22009KT 9999 FEW038 02/00 Q1017

TAF TAF EDLW
Valide du 26 à 18h jusqu'au 27 à 18h UTC


261700Z 2618/2718 23008KT 9999 BKN020
TEMPO 2705/2711 4000 -SNRA BKN012
BECMG 2711/2713 BKN008
TEMPO 2711/2718 3000 -DZRA BKN004



MET'MAP, la Météo Aéronautique d'un coup d'oeil ! - Copyright ORBIFLY Décembre 2007 - Disclaimer

ORBIFLY MET'MAP TEAM :

Programmation & Développement : Alexandra Zaïnal
Sur une idée originale de : Baudouin d'Aumeries
Assistance à la programmation : Marc-Olivier Méhu
Soutien technique & logistique : Manuel Goepfert

Contact : metmap@orbifly.com




SOURCES & CREDITS :

   NOAA